createdAt,value
2019-02-23T08:37:51.028Z,26.80
2019-02-23T08:40:19.817Z,28.40
2019-02-23T08:42:48.500Z,30.00
2019-02-23T08:45:17.194Z,32.10
2019-02-23T08:47:45.972Z,33.60
2019-02-23T08:50:15.688Z,35.20
2019-02-23T08:52:49.304Z,36.50
2019-02-23T08:55:14.899Z,37.40
2019-02-23T08:57:45.537Z,39.20
2019-02-23T09:00:16.308Z,40.70
2019-02-23T09:02:45.372Z,41.10
2019-02-23T09:05:14.559Z,42.50
2019-02-23T09:07:43.447Z,42.90
2019-02-23T09:10:13.974Z,43.30
2019-02-23T09:12:42.749Z,43.10
2019-02-23T09:15:11.866Z,43.70
2019-02-23T09:17:40.631Z,43.50
2019-02-23T09:20:12.801Z,44.10
2019-02-23T09:22:41.583Z,45.70
2019-02-23T09:25:11.006Z,44.70
2019-02-23T09:27:39.667Z,45.50
2019-02-23T09:30:15.815Z,46.50
2019-02-23T09:32:44.511Z,45.80
2019-02-23T09:35:13.201Z,46.40
2019-02-23T09:37:41.913Z,46.00
2019-02-23T09:40:12.960Z,45.70
2019-02-23T09:42:41.681Z,45.50
2019-02-23T09:45:11.999Z,45.60
2019-02-23T09:47:40.512Z,45.30
2019-02-23T09:50:09.093Z,45.40
2019-02-23T09:52:37.782Z,45.50
2019-02-23T09:55:07.128Z,45.90
2019-02-23T09:57:38.634Z,45.60
2019-02-23T10:00:10.353Z,45.70
2019-02-23T10:02:38.976Z,46.00
2019-02-23T10:05:08.061Z,46.00
2019-02-23T10:07:36.633Z,46.10
2019-02-23T10:10:07.746Z,46.00
2019-02-23T10:12:36.573Z,46.60
2019-02-23T10:15:10.378Z,46.70
2019-02-23T10:17:38.962Z,47.10
2019-02-23T10:20:11.854Z,46.60
2019-02-23T10:22:40.534Z,46.80
2019-02-23T10:25:09.215Z,46.40
2019-02-23T10:27:37.716Z,46.60
2019-02-23T10:30:14.568Z,46.20
2019-02-23T10:32:43.252Z,47.00
2019-02-23T10:35:14.908Z,47.00
2019-02-23T10:37:43.584Z,47.00
2019-02-23T10:40:13.096Z,46.90
2019-02-23T10:42:41.780Z,47.10
2019-02-23T10:45:12.759Z,46.90
2019-02-23T10:47:41.407Z,47.50
2019-02-23T10:50:11.629Z,47.50
2019-02-23T10:52:40.413Z,47.30
2019-02-23T10:55:11.348Z,47.60
2019-02-23T10:57:39.933Z,47.20
2019-02-23T11:00:15.877Z,47.30
2019-02-23T11:02:44.685Z,47.30
2019-02-23T11:05:14.278Z,47.10
2019-02-23T11:07:43.076Z,46.90
2019-02-23T11:10:11.866Z,46.90
2019-02-23T11:12:40.649Z,47.00
2019-02-23T11:15:15.249Z,46.90
2019-02-23T11:17:43.959Z,47.40
2019-02-23T11:20:12.734Z,47.20
2019-02-23T11:22:41.528Z,47.20
2019-02-23T11:25:11.583Z,47.30
2019-02-23T11:27:40.358Z,47.40
2019-02-23T11:30:11.556Z,47.30
2019-02-23T11:32:40.155Z,47.70
2019-02-23T11:35:11.091Z,48.00
2019-02-23T11:37:39.883Z,48.30
2019-02-23T11:40:10.887Z,47.80
2019-02-23T11:42:39.608Z,47.50
2019-02-23T11:45:09.681Z,48.00
2019-02-23T11:47:38.413Z,47.90
2019-02-23T11:50:09.649Z,48.40
2019-02-23T11:52:39.515Z,48.00
2019-02-23T11:55:08.387Z,48.30
2019-02-23T11:57:37.144Z,47.90
2019-02-23T12:00:08.395Z,47.80
2019-02-23T12:02:37.056Z,47.80
2019-02-23T12:05:05.775Z,47.50
2019-02-23T12:07:34.539Z,47.60
2019-02-23T12:10:03.347Z,47.70
2019-02-23T12:12:32.219Z,47.50
2019-02-23T12:15:04.247Z,47.40
2019-02-23T12:17:32.963Z,47.50
2019-02-23T12:20:01.547Z,47.50
2019-02-23T12:22:30.237Z,47.70
2019-02-23T12:24:59.014Z,47.70
2019-02-23T12:27:27.914Z,47.50
2019-02-23T12:29:56.682Z,47.60
2019-02-23T12:32:25.383Z,47.40
2019-02-23T12:34:54.061Z,47.40
2019-02-23T12:37:22.847Z,47.90
2019-02-23T12:39:51.431Z,47.00
2019-02-23T12:42:20.116Z,47.00
2019-02-23T12:44:48.799Z,46.90
2019-02-23T12:47:17.382Z,47.00
2019-02-23T12:49:46.065Z,47.00
2019-02-23T12:52:14.648Z,46.70
2019-02-23T12:54:43.439Z,46.80
2019-02-23T12:57:12.123Z,46.70
2019-02-23T12:59:40.814Z,46.70
2019-02-23T13:02:09.489Z,46.20
2019-02-23T13:04:38.178Z,46.40
2019-02-23T13:07:06.869Z,46.50
2019-02-23T13:09:35.561Z,46.50
2019-02-23T13:12:16.522Z,46.40
2019-02-23T13:14:54.524Z,46.20
2019-02-23T13:17:43.172Z,46.40
2019-02-23T13:20:20.868Z,46.30
2019-02-23T13:23:04.686Z,46.30
2019-02-23T13:25:44.844Z,46.20
2019-02-23T13:28:42.563Z,46.20
2019-02-23T13:31:30.971Z,46.10
2019-02-23T13:34:14.606Z,46.20
2019-02-23T13:37:01.886Z,46.20
2019-02-23T13:39:45.459Z,46.30
2019-02-23T13:42:41.781Z,46.30
2019-02-23T13:45:40.686Z,45.90
2019-02-23T13:48:29.135Z,46.00
2019-02-23T13:51:15.950Z,46.30
2019-02-23T13:54:09.116Z,46.30
2019-02-23T13:56:52.737Z,46.40
2019-02-23T13:59:45.689Z,46.40
2019-02-23T14:02:39.462Z,46.40
2019-02-23T14:05:30.366Z,46.40
2019-02-23T14:08:10.624Z,46.50
2019-02-23T14:10:45.441Z,46.50
2019-02-23T14:13:20.180Z,46.50
2019-02-23T14:16:04.324Z,46.20
2019-02-23T14:18:38.959Z,46.00
2019-02-23T14:21:32.107Z,45.90
2019-02-23T14:24:19.121Z,46.00
2019-02-23T14:27:07.568Z,45.70
2019-02-23T14:29:51.516Z,46.10
2019-02-23T14:32:25.726Z,46.10
2019-02-23T14:35:03.420Z,46.10
2019-02-23T14:38:02.117Z,45.90
2019-02-23T14:40:46.063Z,45.80
2019-02-23T14:43:18.018Z,45.50
2019-02-23T14:46:04.952Z,45.50
2019-02-23T14:49:04.012Z,45.40
2019-02-23T14:51:48.085Z,45.40
2019-02-23T14:54:25.864Z,45.70
2019-02-23T14:57:12.780Z,45.20
2019-02-23T14:59:56.718Z,44.90
2019-02-23T15:02:40.173Z,44.80
2019-02-23T15:05:20.921Z,45.00
2019-02-23T15:08:13.879Z,44.90
2019-02-23T15:11:08.063Z,44.80
2019-02-23T15:13:54.397Z,44.60
2019-02-23T15:16:44.759Z,44.40
2019-02-23T15:19:25.664Z,44.10
2019-02-23T15:22:13.690Z,44.10
2019-02-23T15:25:13.633Z,44.10
2019-02-23T15:27:57.234Z,44.10
2019-02-23T15:30:30.789Z,44.20
2019-02-23T15:33:08.496Z,44.20
2019-02-23T15:35:43.479Z,44.20
2019-02-23T15:38:27.417Z,44.10
2019-02-23T15:41:15.857Z,44.00
2019-02-23T15:44:16.595Z,43.90
2019-02-23T15:46:57.363Z,43.50
2019-02-23T15:49:27.962Z,43.70
2019-02-23T15:51:56.654Z,43.80
2019-02-23T15:54:25.411Z,43.80
2019-02-23T15:56:54.319Z,43.70
2019-02-23T15:59:23.007Z,43.50
2019-02-23T16:01:51.588Z,43.40
2019-02-23T16:04:20.177Z,43.40
2019-02-23T16:06:48.744Z,43.30
2019-02-23T16:09:17.444Z,43.10
2019-02-23T16:11:46.223Z,43.40
2019-02-23T16:14:14.902Z,43.30
2019-02-23T16:16:43.584Z,43.20
2019-02-23T16:19:12.474Z,43.10
2019-02-23T16:21:41.057Z,42.90
2019-02-23T16:24:09.843Z,42.90
2019-02-23T16:26:38.527Z,43.00
2019-02-23T16:29:07.211Z,43.70
2019-02-23T16:31:35.885Z,42.90
2019-02-23T16:34:07.170Z,42.90
2019-02-23T16:36:34.801Z,43.00
2019-02-23T16:39:05.126Z,43.10
2019-02-23T16:41:33.708Z,43.10
2019-02-23T16:44:02.394Z,43.00
2019-02-23T16:46:31.080Z,43.10
2019-02-23T16:48:59.768Z,43.10
2019-02-23T16:51:28.448Z,43.10
2019-02-23T16:53:57.027Z,43.10
2019-02-23T16:56:25.609Z,43.10
2019-02-23T16:58:54.194Z,43.40
2019-02-23T17:01:22.908Z,43.70
2019-02-23T17:03:51.568Z,44.10
2019-02-23T17:06:20.449Z,44.40
2019-02-23T17:08:49.135Z,44.40
2019-02-23T17:11:17.921Z,44.60
2019-02-23T17:13:46.506Z,44.80
2019-02-23T17:16:15.195Z,45.00
2019-02-23T17:18:43.846Z,45.00
2019-02-23T17:21:14.533Z,45.20
2019-02-23T17:23:43.293Z,45.30
2019-02-23T17:26:12.182Z,45.70
2019-02-23T17:28:40.865Z,45.50
2019-02-23T17:31:11.401Z,45.60
2019-02-23T17:33:40.068Z,45.60
2019-02-23T17:36:08.869Z,45.70
2019-02-23T17:38:37.546Z,45.80
2019-02-23T17:41:06.335Z,45.60
2019-02-23T17:43:35.231Z,45.80
2019-02-23T17:46:03.922Z,45.70
2019-02-23T17:51:00.960Z,46.20
2019-02-23T17:53:29.654Z,46.10
2019-02-23T17:55:58.234Z,46.00
2019-02-23T17:58:26.922Z,46.00
2019-02-23T18:00:57.757Z,46.20
2019-02-23T18:03:26.448Z,46.10
2019-02-23T18:05:55.374Z,46.30
2019-02-23T18:08:24.121Z,46.50
2019-02-23T18:10:52.827Z,46.60
2019-02-23T18:13:21.596Z,46.70
2019-02-23T18:15:50.286Z,46.90
2019-02-23T18:18:18.971Z,47.00
2019-02-23T18:20:48.341Z,47.10
2019-02-23T18:23:17.045Z,47.10
2019-02-23T18:25:45.815Z,47.20
2019-02-23T18:28:14.528Z,47.30
2019-02-23T18:30:43.445Z,47.20
2019-02-23T18:33:12.094Z,47.40
2019-02-23T18:35:40.775Z,47.50
2019-02-23T18:38:09.374Z,47.40
2019-02-23T18:40:38.031Z,47.60
2019-02-23T18:43:06.828Z,47.80
2019-02-23T18:45:35.718Z,48.00
2019-02-23T18:48:04.399Z,48.10
2019-02-23T18:50:32.882Z,48.30
2019-02-23T18:53:01.696Z,48.20
2019-02-23T18:55:30.562Z,48.20
2019-02-23T18:57:59.461Z,48.20
2019-02-23T19:00:28.028Z,48.40
2019-02-23T19:02:56.716Z,48.50
2019-02-23T19:05:25.501Z,48.30
2019-02-23T19:07:54.089Z,48.50
2019-02-23T19:10:22.772Z,48.30
2019-02-23T19:12:51.455Z,48.50
2019-02-23T19:15:20.144Z,48.50
2019-02-23T19:17:48.721Z,48.80
2019-02-23T19:20:17.439Z,48.70
2019-02-23T19:22:45.986Z,48.80
2019-02-23T19:25:14.568Z,48.70
2019-02-23T19:27:43.160Z,48.80
2019-02-23T19:30:13.595Z,49.10
2019-02-23T19:32:42.363Z,49.00
2019-02-23T19:35:11.048Z,49.50
2019-02-23T19:37:39.833Z,49.40
2019-02-23T19:40:09.648Z,49.20
2019-02-23T19:42:38.331Z,49.00
2019-02-23T19:45:11.332Z,49.00
2019-02-23T19:47:41.928Z,49.20
2019-02-23T19:50:14.219Z,49.40
2019-02-23T19:52:43.106Z,49.20
2019-02-23T19:55:14.822Z,49.20
2019-02-23T19:57:43.547Z,49.20
2019-02-23T20:00:12.555Z,49.50
2019-02-23T20:02:41.800Z,49.50
2019-02-23T20:05:14.616Z,49.50
2019-02-23T20:07:43.407Z,49.30
2019-02-23T20:10:12.087Z,49.30
2019-02-23T20:12:40.773Z,49.40
2019-02-23T20:15:10.790Z,49.50
2019-02-23T20:17:39.371Z,49.40
2019-02-23T20:20:08.875Z,49.40
2019-02-23T20:22:37.665Z,49.30
2019-02-23T20:25:08.499Z,49.50
2019-02-23T20:27:37.189Z,49.40
2019-02-23T20:30:09.254Z,49.50
2019-02-23T20:32:37.933Z,49.50
2019-02-23T20:35:08.375Z,49.50
2019-02-23T20:37:37.047Z,49.50
2019-02-23T20:40:08.045Z,49.70
2019-02-23T20:42:36.761Z,49.90
2019-02-23T20:45:07.599Z,50.00
2019-02-23T20:47:36.388Z,50.00
2019-02-23T20:50:10.556Z,50.00
2019-02-23T20:52:39.505Z,50.00
2019-02-23T20:55:09.186Z,50.10
2019-02-23T20:57:37.817Z,50.00
2019-02-23T21:00:10.934Z,50.10
2019-02-23T21:02:40.103Z,50.20
2019-02-23T21:05:13.220Z,50.20
2019-02-23T21:07:42.579Z,50.30
2019-02-23T21:10:11.451Z,50.30
2019-02-23T21:12:40.241Z,50.40
2019-02-23T21:15:10.668Z,50.50
2019-02-23T21:17:39.341Z,50.40
2019-02-23T21:20:09.511Z,50.40
2019-02-23T21:22:38.254Z,50.40
2019-02-23T21:25:08.195Z,50.60
2019-02-23T21:27:36.840Z,50.60
2019-02-23T21:30:10.080Z,50.60
2019-02-23T21:32:38.615Z,50.80
2019-02-23T21:35:08.529Z,51.10
2019-02-23T21:37:37.210Z,51.30
2019-02-23T21:40:12.087Z,51.30
2019-02-23T21:42:41.031Z,51.50
2019-02-23T21:45:09.911Z,51.50
2019-02-23T21:47:38.708Z,51.30
2019-02-23T21:50:09.353Z,51.40
2019-02-23T21:52:37.919Z,51.20
2019-02-23T21:55:06.811Z,51.20
2019-02-23T21:57:35.392Z,51.30
2019-02-23T22:00:05.406Z,51.20
2019-02-23T22:02:34.093Z,51.10
2019-02-23T22:05:11.670Z,51.80
2019-02-23T22:07:33.448Z,51.00
2019-02-23T22:10:01.989Z,50.90
2019-02-23T22:12:30.674Z,50.90
2019-02-23T22:14:59.477Z,51.70
2019-02-23T22:17:28.155Z,51.00
2019-02-23T22:19:56.937Z,50.80
2019-02-23T22:22:25.623Z,50.70
2019-02-23T22:24:54.183Z,50.70
2019-02-23T22:27:30.951Z,50.80
2019-02-23T22:29:53.411Z,50.80
2019-02-23T22:32:22.203Z,50.70
2019-02-23T22:34:50.885Z,50.70
2019-02-23T22:37:19.466Z,51.20
2019-02-23T22:39:48.149Z,50.50
2019-02-23T22:42:16.834Z,50.20
2019-02-23T22:44:45.624Z,50.10
2019-02-23T22:47:14.192Z,50.20
2019-02-23T22:49:43.095Z,50.00
2019-02-23T22:52:11.781Z,49.70
2019-02-23T22:54:40.467Z,49.50
2019-02-23T22:57:09.045Z,49.50
2019-02-23T22:59:38.043Z,49.10
2019-02-23T23:02:07.030Z,49.00
2019-02-23T23:04:35.724Z,48.70
2019-02-23T23:07:04.503Z,48.50
2019-02-23T23:09:33.289Z,48.40
2019-02-23T23:12:02.078Z,48.50
2019-02-23T23:14:30.759Z,48.50
2019-02-23T23:16:59.448Z,48.30
2019-02-23T23:19:28.126Z,48.40
2019-02-23T23:21:56.926Z,48.40
2019-02-23T23:24:25.494Z,48.30
2019-02-23T23:26:54.182Z,48.40
2019-02-23T23:29:22.765Z,48.50
2019-02-23T23:31:51.554Z,48.50
2019-02-23T23:34:20.336Z,47.90
2019-02-23T23:36:49.126Z,47.40
2019-02-23T23:39:17.919Z,46.90
2019-02-23T23:41:46.583Z,46.50
2019-02-23T23:44:15.664Z,46.50
2019-02-23T23:46:44.374Z,46.20
2019-02-23T23:49:13.051Z,46.20
2019-02-23T23:51:41.849Z,46.00
2019-02-23T23:54:10.635Z,46.00
2019-02-23T23:56:39.321Z,46.00
2019-02-23T23:59:08.002Z,45.90
